createdAt,value
2019-02-23T00:00:19.734Z,81.25
2019-02-23T00:01:19.792Z,81.05
2019-02-23T00:02:19.709Z,81.15
2019-02-23T00:03:19.718Z,80.63
2019-02-23T00:04:20.118Z,80.32
2019-02-23T00:05:19.693Z,80.32
2019-02-23T00:06:29.469Z,80.11
2019-02-23T00:07:20.866Z,80.22
2019-02-23T00:08:19.643Z,80.22
2019-02-23T00:09:19.659Z,80.05
2019-02-23T00:10:19.656Z,80.63
2019-02-23T00:11:19.960Z,80.63
2019-02-23T00:12:19.617Z,80.53
2019-02-23T00:13:19.663Z,80.43
2019-02-23T00:14:19.586Z,79.80
2019-02-23T00:15:19.594Z,79.49
2019-02-23T00:16:19.620Z,80.15
2019-02-23T00:17:19.554Z,80.36
2019-02-23T00:18:19.576Z,80.05
2019-02-23T00:19:24.994Z,80.46
2019-02-23T00:20:20.527Z,80.15
2019-02-23T00:21:19.523Z,79.22
2019-02-23T00:22:19.520Z,79.94
2019-02-23T00:23:19.493Z,80.67
2019-02-23T00:24:20.882Z,80.15
2019-02-23T00:25:19.573Z,80.40
2019-02-23T00:26:19.468Z,80.29
2019-02-23T00:27:19.464Z,80.08
2019-02-23T00:28:19.453Z,80.08
2019-02-23T00:29:19.452Z,80.40
2019-02-23T00:30:20.292Z,80.05
2019-02-23T00:31:19.498Z,80.50
2019-02-23T00:32:19.398Z,80.57
2019-02-23T00:33:19.395Z,80.08
2019-02-23T00:34:19.391Z,80.40
2019-02-23T00:35:19.366Z,80.50
2019-02-23T00:36:19.753Z,80.50
2019-02-23T00:37:19.696Z,80.29
2019-02-23T00:38:19.348Z,80.46
2019-02-23T00:39:19.336Z,80.67
2019-02-23T00:40:19.312Z,80.40
2019-02-23T00:41:19.321Z,80.19
2019-02-23T00:42:19.322Z,80.40
2019-02-23T00:43:19.328Z,80.29
2019-02-23T00:44:19.272Z,80.60
2019-02-23T00:45:19.343Z,80.19
2019-02-23T00:46:19.262Z,80.29
2019-02-23T00:47:19.236Z,80.91
2019-02-23T00:48:19.248Z,80.19
2019-02-23T00:49:19.341Z,81.05
2019-02-23T00:50:19.231Z,80.54
2019-02-23T00:51:19.223Z,81.05
2019-02-23T00:52:19.197Z,80.74
2019-02-23T00:53:19.187Z,79.71
2019-02-23T00:54:19.621Z,79.23
2019-02-23T00:55:19.458Z,79.33
2019-02-23T00:56:19.168Z,76.84
2019-02-23T00:57:19.147Z,76.84
2019-02-23T00:58:19.138Z,75.53
2019-02-23T00:59:19.124Z,75.84
2019-02-23T01:00:19.118Z,76.88
2019-02-23T01:01:19.173Z,76.15
2019-02-23T01:02:19.091Z,75.32
2019-02-23T01:03:19.084Z,75.53
2019-02-23T01:04:19.068Z,75.95
2019-02-23T01:05:19.077Z,74.19
2019-02-23T01:06:19.059Z,73.67
2019-02-23T01:07:19.532Z,73.46
2019-02-23T01:08:19.041Z,73.18
2019-02-23T01:09:19.018Z,73.49
2019-02-23T01:10:19.793Z,73.60
2019-02-23T01:11:19.825Z,73.39
2019-02-23T01:12:18.990Z,72.67
2019-02-23T01:13:20.002Z,72.70
2019-02-23T01:14:18.976Z,72.88
2019-02-23T01:15:18.967Z,72.39
2019-02-23T01:16:18.947Z,73.43
2019-02-23T01:17:18.943Z,72.80
2019-02-23T01:18:18.957Z,73.46
2019-02-23T01:19:19.440Z,73.63
2019-02-23T01:20:18.927Z,73.32
2019-02-23T01:21:18.898Z,73.32
2019-02-23T01:22:18.884Z,73.63
2019-02-23T01:23:18.880Z,73.63
2019-02-23T01:24:18.877Z,73.43
2019-02-23T01:25:18.928Z,73.32
2019-02-23T01:26:18.887Z,73.74
2019-02-23T01:27:18.830Z,73.63
2019-02-23T01:28:18.820Z,73.77
2019-02-23T01:29:18.828Z,73.77
2019-02-23T01:30:18.809Z,73.36
2019-02-23T01:31:18.967Z,73.67
2019-02-23T01:32:18.800Z,73.36
2019-02-23T01:33:18.777Z,73.46
2019-02-23T01:34:18.776Z,73.57
2019-02-23T01:35:18.757Z,73.36
2019-02-23T01:36:18.743Z,72.22
2019-02-23T01:37:19.337Z,72.11
2019-02-23T01:38:18.727Z,72.32
2019-02-23T01:39:18.715Z,71.80
2019-02-23T01:40:18.706Z,71.31
2019-02-23T01:41:18.694Z,71.73
2019-02-23T01:42:18.681Z,71.52
2019-02-23T01:43:19.039Z,71.62
2019-02-23T01:44:19.131Z,71.62
2019-02-23T01:45:18.652Z,71.21
2019-02-23T01:46:18.643Z,71.21
2019-02-23T01:47:18.641Z,71.31
2019-02-23T01:48:18.609Z,71.21
2019-02-23T01:49:18.966Z,71.42
2019-02-23T01:50:18.589Z,71.52
2019-02-23T01:51:18.947Z,71.31
2019-02-23T01:52:18.563Z,71.03
2019-02-23T01:53:18.553Z,71.55
2019-02-23T01:54:18.648Z,71.62
2019-02-23T01:55:18.889Z,71.76
2019-02-23T01:56:18.527Z,71.66
2019-02-23T01:57:18.519Z,72.17
2019-02-23T01:58:19.002Z,71.97
2019-02-23T01:59:18.501Z,71.55
2019-02-23T02:00:18.499Z,71.97
2019-02-23T02:01:18.506Z,71.66
2019-02-23T02:02:18.506Z,72.11
2019-02-23T02:03:18.488Z,72.28
2019-02-23T02:04:18.437Z,72.38
2019-02-23T02:05:18.853Z,72.49
2019-02-23T02:06:18.792Z,71.66
2019-02-23T02:07:18.467Z,71.97
2019-02-23T02:08:18.447Z,71.76
2019-02-23T02:09:18.391Z,72.69
2019-02-23T02:10:18.402Z,72.28
2019-02-23T02:11:18.387Z,71.97
2019-02-23T02:12:18.682Z,71.76
2019-02-23T02:13:18.393Z,71.55
2019-02-23T02:14:18.328Z,71.69
2019-02-23T02:15:18.336Z,72.00
2019-02-23T02:16:18.318Z,72.21
2019-02-23T02:17:18.310Z,72.52
2019-02-23T02:18:18.296Z,72.17
2019-02-23T02:19:18.769Z,72.49
2019-02-23T02:20:18.277Z,72.69
2019-02-23T02:21:18.277Z,72.11
2019-02-23T02:22:18.253Z,72.73
2019-02-23T02:23:18.269Z,72.83
2019-02-23T02:24:18.228Z,72.83
2019-02-23T02:25:18.597Z,72.31
2019-02-23T02:26:19.595Z,72.42
2019-02-23T02:27:18.198Z,72.76
2019-02-23T02:28:18.197Z,72.73
2019-02-23T02:29:18.168Z,72.55
2019-02-23T02:30:18.266Z,72.55
2019-02-23T02:31:18.214Z,72.55
2019-02-23T02:32:18.169Z,72.66
2019-02-23T02:33:18.616Z,72.66
2019-02-23T02:34:18.149Z,72.76
2019-02-23T02:35:18.128Z,72.55
2019-02-23T02:36:18.163Z,72.14
2019-02-23T02:37:18.121Z,72.86
2019-02-23T02:38:18.081Z,72.97
2019-02-23T02:39:18.136Z,72.45
2019-02-23T02:40:18.474Z,72.86
2019-02-23T02:41:18.056Z,72.86
2019-02-23T02:42:18.051Z,72.76
2019-02-23T02:43:18.086Z,72.76
2019-02-23T02:44:18.020Z,72.76
2019-02-23T02:45:18.013Z,72.97
2019-02-23T02:46:18.008Z,73.07
2019-02-23T02:47:18.495Z,73.49
2019-02-23T02:48:17.979Z,73.60
2019-02-23T02:49:18.017Z,73.11
2019-02-23T02:50:24.362Z,73.21
2019-02-23T02:51:18.937Z,73.49
2019-02-23T02:52:17.946Z,73.63
2019-02-23T02:53:17.927Z,73.21
2019-02-23T02:54:18.338Z,73.11
2019-02-23T02:55:17.932Z,72.69
2019-02-23T02:56:17.892Z,73.11
2019-02-23T02:57:17.888Z,72.69
2019-02-23T02:58:17.891Z,72.59
2019-02-23T02:59:17.889Z,72.59
2019-02-23T03:01:36.583Z,72.49
2019-02-23T03:02:36.229Z,72.28
2019-02-23T03:03:36.226Z,71.83
2019-02-23T03:04:36.208Z,71.65
2019-02-23T03:05:36.203Z,71.86
2019-02-23T03:06:36.192Z,71.20
2019-02-23T03:07:36.216Z,71.23
2019-02-23T03:08:36.562Z,71.34
2019-02-23T03:09:36.151Z,71.23
2019-02-23T03:10:36.147Z,70.82
2019-02-23T03:11:36.132Z,71.34
2019-02-23T03:12:36.125Z,70.64
2019-02-23T03:13:36.141Z,71.69
2019-02-23T03:14:36.136Z,71.58
2019-02-23T03:15:36.442Z,70.85
2019-02-23T03:16:36.071Z,70.75
2019-02-23T03:17:36.062Z,71.37
2019-02-23T03:18:36.072Z,71.58
2019-02-23T03:19:36.266Z,70.30
2019-02-23T03:20:36.991Z,69.71
2019-02-23T03:21:36.032Z,69.60
2019-02-23T03:22:36.328Z,70.12
2019-02-23T03:23:36.006Z,70.12
2019-02-23T03:24:36.043Z,70.09
2019-02-23T03:25:36.022Z,70.02
2019-02-23T03:26:35.969Z,69.71
2019-02-23T03:27:36.783Z,70.02
2019-02-23T03:28:35.952Z,69.81
2019-02-23T03:29:36.256Z,70.09
2019-02-23T03:30:35.979Z,69.19
2019-02-23T03:31:35.982Z,68.98
2019-02-23T03:32:35.932Z,69.29
2019-02-23T03:33:35.924Z,69.40
2019-02-23T03:34:35.911Z,68.98
2019-02-23T03:35:35.885Z,69.29
2019-02-23T03:36:36.287Z,69.40
2019-02-23T03:37:36.178Z,69.53
2019-02-23T03:38:35.882Z,69.50
2019-02-23T03:39:35.834Z,69.09
2019-02-23T03:40:35.827Z,69.60
2019-02-23T03:41:35.815Z,69.50
2019-02-23T03:42:35.808Z,69.19
2019-02-23T03:43:36.141Z,69.22
2019-02-23T03:44:35.776Z,69.29
2019-02-23T03:45:35.775Z,69.19
2019-02-23T03:46:35.763Z,68.98
2019-02-23T03:47:35.817Z,68.77
2019-02-23T03:48:35.853Z,68.88
2019-02-23T03:49:35.791Z,69.19
2019-02-23T03:50:36.019Z,68.56
2019-02-23T03:51:35.712Z,67.94
2019-02-23T03:52:35.698Z,69.01
2019-02-23T03:53:35.707Z,68.91
2019-02-23T03:54:35.681Z,68.91
2019-02-23T03:55:36.237Z,69.01
2019-02-23T03:56:35.664Z,69.32
2019-02-23T03:57:37.004Z,69.53
2019-02-23T03:58:35.647Z,68.60
2019-02-23T03:59:35.634Z,68.91
2019-02-23T04:00:35.620Z,69.22
2019-02-23T04:01:35.644Z,69.22
2019-02-23T04:02:35.631Z,69.43
2019-02-23T04:03:35.599Z,69.12
2019-02-23T04:04:35.883Z,68.91
2019-02-23T04:05:35.567Z,68.70
2019-02-23T04:06:35.565Z,68.49
2019-02-23T04:07:35.617Z,69.12
2019-02-23T04:08:35.537Z,68.88
2019-02-23T04:09:35.532Z,68.18
2019-02-23T04:10:35.556Z,68.60
2019-02-23T04:11:35.848Z,68.07
2019-02-23T04:12:35.542Z,68.07
2019-02-23T04:13:35.557Z,69.12
2019-02-23T04:14:35.513Z,69.53
2019-02-23T04:15:35.479Z,68.49
2019-02-23T04:16:35.454Z,68.21
2019-02-23T04:17:35.476Z,67.86
2019-02-23T04:18:35.743Z,69.01
2019-02-23T04:19:35.466Z,69.15
2019-02-23T04:20:35.427Z,67.97
2019-02-23T04:21:35.411Z,67.79
2019-02-23T04:22:35.389Z,67.45
2019-02-23T04:23:35.438Z,67.76
2019-02-23T04:24:35.378Z,67.38
2019-02-23T04:25:35.689Z,67.69
2019-02-23T04:26:35.350Z,67.17
2019-02-23T04:27:35.375Z,67.79
2019-02-23T04:28:35.351Z,67.90
2019-02-23T04:29:35.336Z,67.90
2019-02-23T04:30:35.319Z,67.90
2019-02-23T04:31:36.070Z,67.79
2019-02-23T04:32:35.308Z,67.58
2019-02-23T04:33:35.278Z,67.90
2019-02-23T04:34:35.279Z,67.69
2019-02-23T04:35:35.278Z,67.55
2019-02-23T04:36:35.253Z,67.76
2019-02-23T04:37:35.274Z,67.69
2019-02-23T04:38:35.542Z,67.48
2019-02-23T04:39:35.274Z,67.27
2019-02-23T04:40:35.246Z,67.17
2019-02-23T04:41:35.231Z,67.69
2019-02-23T04:42:35.203Z,67.48
2019-02-23T04:43:35.215Z,67.69
2019-02-23T04:44:35.191Z,68.00
2019-02-23T04:45:35.476Z,67.69
2019-02-23T04:46:35.170Z,67.38
2019-02-23T04:47:35.138Z,67.30
2019-02-23T04:48:35.159Z,67.69
2019-02-23T04:49:35.432Z,67.55
2019-02-23T04:50:35.118Z,67.79
2019-02-23T04:51:35.112Z,67.48
2019-02-23T04:52:35.423Z,67.90
2019-02-23T04:53:35.758Z,67.07
2019-02-23T04:54:35.092Z,67.58
2019-02-23T04:55:35.295Z,67.17
2019-02-23T04:56:35.043Z,68.00
2019-02-23T04:57:35.133Z,67.58
2019-02-23T04:58:35.027Z,67.79
2019-02-23T04:59:36.056Z,67.38
2019-02-23T05:00:34.999Z,67.90
2019-02-23T05:01:35.091Z,67.69
2019-02-23T05:02:35.008Z,67.48
2019-02-23T05:03:35.004Z,67.69
2019-02-23T05:04:34.977Z,68.00
2019-02-23T05:05:34.947Z,67.17
2019-02-23T05:06:36.443Z,68.10
2019-02-23T05:07:35.781Z,67.17
2019-02-23T05:08:35.005Z,67.90
2019-02-23T05:09:34.968Z,68.00
2019-02-23T05:10:34.905Z,67.27
2019-02-23T05:11:34.906Z,66.23
2019-02-23T05:12:34.884Z,66.65
2019-02-23T05:13:36.320Z,68.00
2019-02-23T05:14:34.863Z,68.00
2019-02-23T05:15:34.859Z,67.07
2019-02-23T05:16:34.850Z,67.79
2019-02-23T05:17:34.848Z,67.48
2019-02-23T05:18:34.829Z,67.61
2019-02-23T05:19:34.847Z,67.38
2019-02-23T05:20:35.325Z,67.51
2019-02-23T05:21:34.803Z,67.72
2019-02-23T05:22:34.802Z,67.93
2019-02-23T05:23:34.812Z,67.17
2019-02-23T05:24:34.782Z,67.90
2019-02-23T05:25:34.842Z,67.30
2019-02-23T05:26:34.813Z,67.93
2019-02-23T05:27:35.137Z,67.30
2019-02-23T05:28:34.728Z,67.38
2019-02-23T05:29:34.721Z,67.20
2019-02-23T05:30:34.731Z,67.79
2019-02-23T05:31:34.730Z,66.86
2019-02-23T05:32:34.691Z,67.79
2019-02-23T05:33:34.693Z,66.78
2019-02-23T05:34:36.198Z,66.68
2019-02-23T05:35:34.643Z,67.20
2019-02-23T05:36:34.635Z,66.36
2019-02-23T05:37:34.669Z,66.99
2019-02-23T05:38:34.622Z,67.51
2019-02-23T05:39:34.617Z,67.61
2019-02-23T05:40:34.592Z,67.17
2019-02-23T05:41:35.187Z,67.10
2019-02-23T05:42:34.587Z,66.99
2019-02-23T05:43:34.659Z,67.72
2019-02-23T05:44:34.562Z,67.51
2019-02-23T05:45:35.236Z,67.51
2019-02-23T05:46:34.628Z,68.24
2019-02-23T05:47:34.540Z,66.99
2019-02-23T05:48:35.065Z,67.61
2019-02-23T05:49:37.022Z,67.30
2019-02-23T05:50:34.491Z,67.72
2019-02-23T05:51:38.634Z,67.93
2019-02-23T05:52:34.467Z,67.13
2019-02-23T05:53:34.527Z,67.72
2019-02-23T05:54:34.454Z,67.93
2019-02-23T05:55:34.948Z,67.51
2019-02-23T05:56:34.472Z,67.51
2019-02-23T05:57:34.454Z,67.23
2019-02-23T05:58:34.458Z,67.20
2019-02-23T05:59:34.409Z,67.51
2019-02-23T06:00:34.389Z,67.82
2019-02-23T06:01:34.689Z,68.24
2019-02-23T06:02:34.730Z,67.93
2019-02-23T06:03:34.352Z,67.30
2019-02-23T06:04:34.359Z,66.99
2019-02-23T06:05:34.359Z,67.82
2019-02-23T06:06:34.333Z,67.41
2019-02-23T06:07:34.373Z,67.51
2019-02-23T06:08:34.328Z,68.03
2019-02-23T06:09:34.772Z,67.93
2019-02-23T06:10:34.316Z,67.30
2019-02-23T06:11:34.381Z,67.41
2019-02-23T06:12:34.286Z,67.93
2019-02-23T06:13:34.466Z,67.20
2019-02-23T06:14:34.244Z,67.93
2019-02-23T06:15:34.261Z,67.20
2019-02-23T06:16:34.621Z,67.93
2019-02-23T06:17:34.233Z,67.51
2019-02-23T06:18:34.286Z,67.61
2019-02-23T06:19:34.393Z,67.51
2019-02-23T06:20:34.312Z,67.20
2019-02-23T06:21:34.232Z,68.03
2019-02-23T06:22:34.212Z,67.82
2019-02-23T06:23:34.677Z,67.75
2019-02-23T06:24:34.147Z,67.72
2019-02-23T06:25:34.293Z,67.85
2019-02-23T06:26:34.131Z,67.75
2019-02-23T06:27:34.133Z,67.75
2019-02-23T06:28:34.133Z,68.17
2019-02-23T06:29:34.105Z,68.27
2019-02-23T06:30:35.583Z,68.27
2019-02-23T06:31:34.129Z,68.90
2019-02-23T06:32:34.069Z,68.97
2019-02-23T06:33:34.054Z,68.17
2019-02-23T06:34:34.087Z,67.65
2019-02-23T06:35:34.043Z,69.10
2019-02-23T06:36:34.032Z,69.00
2019-02-23T06:37:35.812Z,68.79
2019-02-23T06:38:33.996Z,69.21
2019-02-23T06:39:34.087Z,69.00
2019-02-23T06:40:33.981Z,69.00
2019-02-23T06:41:33.991Z,69.42
2019-02-23T06:42:33.981Z,69.53
2019-02-23T06:43:33.979Z,69.21
2019-02-23T06:44:34.398Z,68.76
2019-02-23T06:45:33.929Z,69.42
2019-02-23T06:46:34.727Z,69.59
2019-02-23T06:47:33.913Z,69.63
2019-02-23T06:48:33.894Z,69.42
2019-02-23T06:49:33.923Z,69.21
2019-02-23T06:50:33.866Z,68.76
2019-02-23T06:51:34.251Z,69.18
2019-02-23T06:52:33.866Z,69.00
2019-02-23T06:53:33.861Z,68.97
2019-02-23T06:54:33.853Z,69.63
2019-02-23T06:55:33.868Z,69.49
2019-02-23T06:56:34.739Z,68.90
2019-02-23T06:57:33.811Z,69.63
2019-02-23T06:58:33.798Z,68.97
2019-02-23T06:59:33.800Z,69.38
2019-02-23T07:00:33.828Z,69.84
2019-02-23T07:01:33.820Z,69.73
2019-02-23T07:02:34.734Z,69.70
2019-02-23T07:03:34.117Z,68.87
2019-02-23T07:04:33.732Z,69.70
2019-02-23T07:05:33.745Z,69.38
2019-02-23T07:06:33.724Z,69.07
2019-02-23T07:07:33.764Z,69.07
2019-02-23T07:08:33.690Z,68.21
2019-02-23T07:09:33.710Z,68.10
2019-02-23T07:10:33.686Z,68.10
2019-02-23T07:11:33.686Z,67.69
2019-02-23T07:12:33.645Z,68.10
2019-02-23T07:13:33.707Z,67.58
2019-02-23T07:14:33.646Z,67.17
2019-02-23T07:15:33.979Z,67.58
2019-02-23T07:16:33.705Z,67.48
2019-02-23T07:17:33.676Z,67.69
2019-02-23T07:18:33.610Z,67.76
2019-02-23T07:19:33.603Z,67.76
2019-02-23T07:20:43.448Z,67.76
2019-02-23T07:21:34.587Z,67.76
2019-02-23T07:22:34.029Z,67.76
2019-02-23T07:23:33.541Z,67.32
2019-02-23T07:24:33.536Z,67.32
2019-02-23T07:25:33.553Z,66.90
2019-02-23T07:26:33.509Z,67.32
2019-02-23T07:27:33.495Z,67.21
2019-02-23T07:28:33.482Z,67.32
2019-02-23T07:29:33.855Z,67.42
2019-02-23T07:30:33.474Z,67.11
2019-02-23T07:31:33.522Z,67.42
2019-02-23T07:32:33.543Z,66.80
2019-02-23T07:33:33.464Z,66.80
2019-02-23T07:34:33.446Z,67.32
2019-02-23T07:35:33.432Z,66.69
2019-02-23T07:36:33.907Z,66.90
2019-02-23T07:37:33.471Z,66.56
2019-02-23T07:38:35.526Z,67.18
2019-02-23T07:39:33.376Z,66.59
2019-02-23T07:40:33.484Z,66.48
2019-02-23T07:41:33.353Z,66.69
2019-02-23T07:42:33.364Z,66.38
2019-02-23T07:43:33.778Z,66.80
2019-02-23T07:44:33.332Z,66.45
2019-02-23T07:45:33.332Z,66.24
2019-02-23T07:46:33.319Z,66.24
2019-02-23T07:47:33.329Z,66.21
2019-02-23T07:48:33.781Z,66.63
2019-02-23T07:49:33.477Z,65.59
2019-02-23T07:50:34.676Z,66.03
2019-02-23T07:51:33.242Z,66.42
2019-02-23T07:52:33.246Z,65.59
2019-02-23T07:53:33.268Z,65.45
2019-02-23T07:54:33.218Z,64.90
2019-02-23T07:55:33.303Z,64.77
2019-02-23T07:56:35.107Z,64.56
2019-02-23T07:57:33.652Z,63.53
2019-02-23T07:58:33.203Z,62.54
2019-02-23T07:59:33.157Z,61.55
2019-02-23T08:00:33.192Z,60.04
2019-02-23T08:01:33.287Z,59.29
2019-02-23T08:02:33.141Z,58.56
2019-02-23T08:03:33.153Z,58.38
2019-02-23T08:04:33.475Z,58.56
2019-02-23T08:05:33.112Z,58.15
2019-02-23T08:06:33.104Z,58.04
2019-02-23T08:07:33.152Z,58.04
2019-02-23T08:08:33.105Z,58.31
2019-02-23T08:09:33.087Z,59.45
2019-02-23T08:10:33.706Z,59.58
2019-02-23T08:11:33.078Z,60.51
2019-02-23T08:12:33.035Z,61.16
2019-02-23T08:13:33.246Z,61.94
2019-02-23T08:14:33.019Z,62.46
2019-02-23T08:15:33.053Z,63.11
2019-02-23T08:16:33.005Z,63.73
2019-02-23T08:17:33.384Z,64.15
2019-02-23T08:18:33.003Z,64.25
2019-02-23T08:19:32.996Z,64.67
2019-02-23T08:20:33.698Z,64.77
2019-02-23T08:21:34.791Z,64.67
2019-02-23T08:22:37.469Z,64.56
2019-02-23T08:23:33.762Z,64.25
2019-02-23T08:24:32.940Z,64.67
2019-02-23T08:25:33.884Z,64.77
2019-02-23T08:26:32.928Z,64.36
2019-02-23T08:27:32.872Z,64.77
2019-02-23T08:28:33.903Z,65.01
2019-02-23T08:29:32.873Z,65.42
2019-02-23T08:30:32.873Z,65.42
2019-02-23T08:31:32.936Z,66.36
2019-02-23T08:32:34.777Z,65.50
2019-02-23T08:33:32.830Z,64.90
2019-02-23T08:34:33.665Z,65.42
2019-02-23T08:35:32.796Z,64.80
2019-02-23T08:36:32.781Z,65.42
2019-02-23T08:37:32.826Z,65.39
2019-02-23T08:38:32.762Z,65.91
2019-02-23T08:39:32.799Z,65.50
2019-02-23T08:40:32.799Z,65.29
2019-02-23T08:41:32.778Z,64.67
2019-02-23T08:42:32.808Z,65.06
2019-02-23T08:43:32.848Z,64.85
2019-02-23T08:44:32.729Z,64.54
2019-02-23T08:45:32.732Z,64.40
2019-02-23T08:46:32.691Z,64.40
2019-02-23T08:47:33.923Z,65.44
2019-02-23T08:48:33.444Z,64.30
2019-02-23T08:49:32.728Z,64.02
2019-02-23T08:50:32.727Z,65.03
2019-02-23T08:51:32.676Z,64.30
2019-02-23T08:52:32.678Z,63.89
2019-02-23T08:53:32.693Z,63.78
2019-02-23T08:54:32.654Z,63.68
2019-02-23T08:55:32.636Z,64.20
2019-02-23T08:56:32.583Z,64.61
2019-02-23T08:57:32.567Z,64.61
2019-02-23T08:58:32.561Z,64.92
2019-02-23T08:59:32.552Z,64.20
2019-02-23T09:00:32.668Z,64.37
2019-02-23T09:01:32.697Z,63.89
2019-02-23T09:02:32.529Z,63.89
2019-02-23T09:03:32.515Z,64.72
2019-02-23T09:04:32.515Z,64.30
2019-02-23T09:05:32.551Z,63.75
2019-02-23T09:06:32.745Z,64.09
2019-02-23T09:07:33.390Z,63.78
2019-02-23T09:08:32.600Z,64.37
2019-02-23T09:09:34.759Z,64.37
2019-02-23T09:10:32.734Z,64.48
2019-02-23T09:11:34.650Z,64.17
2019-02-23T09:12:40.538Z,63.82
2019-02-23T09:13:34.515Z,63.93
2019-02-23T09:14:33.981Z,64.03
2019-02-23T09:15:33.693Z,63.82
2019-02-23T09:16:36.557Z,64.14
2019-02-23T09:17:32.717Z,63.85
2019-02-23T09:18:32.388Z,64.65
2019-02-23T09:19:32.454Z,64.48
2019-02-23T09:20:32.362Z,65.28
2019-02-23T09:21:32.533Z,65.28
2019-02-23T09:22:32.302Z,64.21
2019-02-23T09:23:32.453Z,63.90
2019-02-23T09:24:32.341Z,64.21
2019-02-23T09:25:32.331Z,63.66
2019-02-23T09:26:32.312Z,63.95
2019-02-23T09:27:32.265Z,63.97
2019-02-23T09:28:32.487Z,63.66
2019-02-23T09:29:32.242Z,64.49
2019-02-23T09:30:32.294Z,64.28
2019-02-23T09:31:32.278Z,64.18
2019-02-23T09:32:32.269Z,64.18
2019-02-23T09:33:32.511Z,65.11
2019-02-23T09:34:32.224Z,63.66
2019-02-23T09:35:37.208Z,64.28
2019-02-23T09:36:32.211Z,64.07
2019-02-23T09:37:33.069Z,63.87
2019-02-23T09:38:32.549Z,64.46
2019-02-23T09:39:32.983Z,63.43
2019-02-23T09:40:32.363Z,63.97
2019-02-23T09:41:32.346Z,63.95
2019-02-23T09:42:32.599Z,63.64
2019-02-23T09:43:32.153Z,64.25
2019-02-23T09:44:32.137Z,63.95
2019-02-23T09:45:32.063Z,63.64
2019-02-23T09:46:32.058Z,64.46
2019-02-23T09:47:32.053Z,63.60
2019-02-23T09:48:32.728Z,62.85
2019-02-23T09:49:32.123Z,63.06
2019-02-23T09:50:32.148Z,62.65
2019-02-23T09:51:32.061Z,62.95
2019-02-23T09:52:32.029Z,62.54
2019-02-23T09:53:32.708Z,62.13
2019-02-23T09:54:32.021Z,61.92
2019-02-23T09:55:32.089Z,62.23
2019-02-23T09:56:32.095Z,62.10
2019-02-23T09:57:31.951Z,61.07
2019-02-23T09:58:32.753Z,60.86
2019-02-23T09:59:31.921Z,60.99
2019-02-23T10:00:32.692Z,61.58
2019-02-23T10:01:31.973Z,61.35
2019-02-23T10:02:31.904Z,60.83
2019-02-23T10:03:31.930Z,60.80
2019-02-23T10:04:32.204Z,60.18
2019-02-23T10:05:32.011Z,59.90
2019-02-23T10:06:32.166Z,60.42
2019-02-23T10:07:32.609Z,60.93
2019-02-23T10:08:31.943Z,59.15
2019-02-23T10:09:32.734Z,59.25
2019-02-23T10:10:31.826Z,59.05
2019-02-23T10:11:31.962Z,59.23
2019-02-23T10:14:23.728Z,59.74
2019-02-23T10:15:22.545Z,59.67
2019-02-23T10:16:22.703Z,59.46
2019-02-23T10:17:22.493Z,59.12
2019-02-23T10:18:22.519Z,59.20
2019-02-23T10:19:22.482Z,58.37
2019-02-23T10:20:23.639Z,57.86
2019-02-23T10:21:22.861Z,57.78
2019-02-23T10:22:22.602Z,59.30
2019-02-23T10:23:22.565Z,58.09
2019-02-23T10:24:24.727Z,58.40
2019-02-23T10:25:23.823Z,58.27
2019-02-23T10:26:23.733Z,57.65
2019-02-23T10:27:22.365Z,56.49
2019-02-23T10:28:22.466Z,56.31
2019-02-23T10:29:22.392Z,57.62
2019-02-23T10:30:22.452Z,56.16
2019-02-23T10:31:22.901Z,56.59
2019-02-23T10:32:22.315Z,56.70
2019-02-23T10:33:22.837Z,56.49
2019-02-23T10:34:22.377Z,56.88
2019-02-23T10:35:22.496Z,56.88
2019-02-23T10:36:23.231Z,56.95
2019-02-23T10:37:23.391Z,56.03
2019-02-23T10:38:22.319Z,56.82
2019-02-23T10:39:22.258Z,56.31
2019-02-23T10:40:22.686Z,56.52
2019-02-23T10:41:22.259Z,56.29
2019-02-23T10:42:22.274Z,55.87
2019-02-23T10:43:23.781Z,56.29
2019-02-23T10:44:22.424Z,56.08
2019-02-23T10:45:22.364Z,55.87
2019-02-23T10:46:22.182Z,54.77
2019-02-23T10:47:23.767Z,56.10
2019-02-23T10:48:22.149Z,55.46
2019-02-23T10:49:22.317Z,55.26
2019-02-23T10:50:22.280Z,55.46
2019-02-23T10:51:22.262Z,55.49
2019-02-23T10:52:22.141Z,55.66
2019-02-23T10:53:32.445Z,55.59
2019-02-23T10:54:23.323Z,56.38
2019-02-23T10:55:22.213Z,55.85
2019-02-23T10:56:22.106Z,54.92
2019-02-23T10:57:22.107Z,54.20
2019-02-23T10:58:22.939Z,54.53
2019-02-23T10:59:22.278Z,55.18
2019-02-23T11:00:23.845Z,56.10
2019-02-23T11:01:22.082Z,55.59
2019-02-23T11:02:22.029Z,55.66
2019-02-23T11:03:22.018Z,55.15
2019-02-23T11:04:22.391Z,55.26
2019-02-23T11:05:23.756Z,54.74
2019-02-23T11:06:22.519Z,55.36
2019-02-23T11:07:22.557Z,56.38
2019-02-23T11:08:22.280Z,55.95
2019-02-23T11:09:22.150Z,54.20
2019-02-23T11:10:23.804Z,53.89
2019-02-23T11:11:22.156Z,54.00
2019-02-23T11:12:22.420Z,54.41
2019-02-23T11:13:22.174Z,54.82
2019-02-23T11:14:21.886Z,55.43
2019-02-23T11:15:21.868Z,55.33
2019-02-23T11:16:21.860Z,54.59
2019-02-23T11:17:22.090Z,54.66
2019-02-23T11:18:23.485Z,54.25
2019-02-23T11:19:22.550Z,53.64
2019-02-23T11:20:23.682Z,54.15
2019-02-23T11:21:21.906Z,54.23
2019-02-23T11:22:22.489Z,53.92
2019-02-23T11:23:21.985Z,54.43
2019-02-23T11:24:23.188Z,54.43
2019-02-23T11:25:22.445Z,54.46
2019-02-23T11:26:23.189Z,55.10
2019-02-23T11:27:22.539Z,55.38
2019-02-23T11:28:22.361Z,54.23
2019-02-23T11:29:22.721Z,53.28
2019-02-23T11:30:22.831Z,52.95
2019-02-23T11:31:21.874Z,53.03
2019-02-23T11:32:21.807Z,52.82
2019-02-23T11:33:21.708Z,52.59
2019-02-23T11:34:26.813Z,51.75
2019-02-23T11:35:21.912Z,52.08
2019-02-23T11:36:22.136Z,51.34
2019-02-23T11:37:21.994Z,51.31
2019-02-23T11:38:21.655Z,49.79
2019-02-23T11:39:22.742Z,47.63
2019-02-23T11:40:23.567Z,45.83
2019-02-23T11:41:21.969Z,44.04
2019-02-23T11:42:21.989Z,43.00
2019-02-23T11:43:22.167Z,43.51
2019-02-23T11:44:21.566Z,41.64
2019-02-23T11:45:21.554Z,41.78
2019-02-23T11:46:21.894Z,43.91
2019-02-23T11:47:21.761Z,44.31
2019-02-23T11:48:22.927Z,42.82
2019-02-23T11:49:21.817Z,41.03
2019-02-23T11:50:21.996Z,38.91
2019-02-23T11:51:21.754Z,38.50
2019-02-23T11:52:22.751Z,38.59
2019-02-23T11:53:21.854Z,38.08
2019-02-23T11:54:21.801Z,37.79
2019-02-23T11:55:22.024Z,38.32
2019-02-23T11:56:22.012Z,37.79
2019-02-23T11:57:21.676Z,38.54
2019-02-23T11:58:21.447Z,38.64
2019-02-23T11:59:21.489Z,38.43
2019-02-23T12:00:21.737Z,38.18
2019-02-23T12:01:21.605Z,37.12
2019-02-23T12:02:21.833Z,37.12
2019-02-23T12:03:21.360Z,36.39
2019-02-23T12:04:21.420Z,36.85
2019-02-23T12:05:21.350Z,38.57
2019-02-23T12:06:21.519Z,39.95
2019-02-23T12:07:21.378Z,40.68
2019-02-23T12:08:21.599Z,41.19
2019-02-23T12:09:22.019Z,40.99
2019-02-23T12:10:21.335Z,41.07
2019-02-23T12:11:21.392Z,40.44
2019-02-23T12:12:22.907Z,40.77
2019-02-23T12:13:21.396Z,40.66
2019-02-23T12:14:21.720Z,40.56
2019-02-23T12:15:21.274Z,40.58
2019-02-23T12:16:24.730Z,41.53
2019-02-23T12:17:21.744Z,40.80
2019-02-23T12:18:22.751Z,39.64
2019-02-23T12:19:21.746Z,40.07
2019-02-23T12:20:21.271Z,40.05
2019-02-23T12:21:21.176Z,39.56
2019-02-23T12:22:21.173Z,40.52
2019-02-23T12:23:21.483Z,41.16
2019-02-23T12:24:21.183Z,40.41
2019-02-23T12:25:21.215Z,40.09
2019-02-23T12:26:21.803Z,39.76
2019-02-23T12:27:21.223Z,39.44
2019-02-23T12:28:21.807Z,38.93
2019-02-23T12:29:21.105Z,38.59
2019-02-23T12:30:21.141Z,38.61
2019-02-23T12:31:21.067Z,38.79
2019-02-23T12:32:21.608Z,38.09
2019-02-23T12:33:21.084Z,38.61
2019-02-23T12:34:21.254Z,39.15
2019-02-23T12:35:21.453Z,39.10
2019-02-23T12:36:21.283Z,37.93
2019-02-23T12:37:21.153Z,37.10
2019-02-23T12:38:21.787Z,37.16
2019-02-23T12:39:21.230Z,36.37
2019-02-23T12:40:21.668Z,36.56
2019-02-23T12:41:21.514Z,36.32
2019-02-23T12:42:21.191Z,35.83
2019-02-23T12:43:20.966Z,36.34
2019-02-23T12:44:20.964Z,36.02
2019-02-23T12:45:20.957Z,36.17
2019-02-23T12:46:21.189Z,36.44
2019-02-23T12:47:21.231Z,37.57
2019-02-23T12:48:21.458Z,36.27
2019-02-23T12:49:21.341Z,37.99
2019-02-23T12:50:21.403Z,37.27
2019-02-23T12:51:21.099Z,35.01
2019-02-23T12:52:21.268Z,36.56
2019-02-23T12:53:21.016Z,35.95
2019-02-23T12:54:23.661Z,36.41
2019-02-23T12:55:20.811Z,38.20